createdAt,value
2018-03-06T00:01:48.004Z,13.80
2018-03-06T00:04:16.252Z,10.95
2018-03-06T00:06:43.738Z,10.85
2018-03-06T00:09:11.986Z,10.13
2018-03-06T00:11:39.466Z,13.23
2018-03-06T00:14:07.710Z,9.23
2018-03-06T00:16:35.194Z,12.57
2018-03-06T00:19:02.666Z,11.67
2018-03-06T00:21:30.900Z,8.17
2018-03-06T00:23:58.481Z,11.88
2018-03-06T00:26:25.981Z,10.63
2018-03-06T00:28:54.192Z,8.23
2018-03-06T00:31:21.665Z,9.10
2018-03-06T00:33:49.130Z,11.38
2018-03-06T00:36:17.371Z,14.82
2018-03-06T00:38:44.872Z,13.32
2018-03-06T00:41:13.127Z,10.70
2018-03-06T00:43:40.606Z,12.27
2018-03-06T00:46:08.968Z,16.80
2018-03-06T00:48:37.238Z,11.48
2018-03-06T00:51:05.482Z,13.27
2018-03-06T00:53:32.970Z,10.05
2018-03-06T00:56:00.443Z,7.12
2018-03-06T00:58:28.687Z,10.55
2018-03-06T01:00:56.254Z,7.35
2018-03-06T01:03:23.820Z,12.43
2018-03-06T01:05:52.075Z,7.53
2018-03-06T01:08:19.556Z,8.73
2018-03-06T01:10:47.926Z,8.10
2018-03-06T01:13:16.199Z,6.32
2018-03-06T01:15:44.451Z,11.85
2018-03-06T01:18:12.031Z,11.55
2018-03-06T01:20:40.270Z,7.50
2018-03-06T01:23:07.754Z,9.02
2018-03-06T01:25:35.360Z,8.18
2018-03-06T01:28:03.599Z,5.90
2018-03-06T01:30:31.851Z,11.27
2018-03-06T01:32:59.334Z,6.95
2018-03-06T01:35:27.593Z,7.57
2018-03-06T01:37:55.870Z,9.87
2018-03-06T01:40:23.343Z,7.15
2018-03-06T01:42:51.602Z,11.53
2018-03-06T01:45:19.091Z,11.40
2018-03-06T01:47:46.576Z,10.25
2018-03-06T01:50:14.099Z,10.70
2018-03-06T01:52:41.627Z,7.68
2018-03-06T01:55:09.100Z,11.10
2018-03-06T01:57:37.347Z,8.02
2018-03-06T02:00:04.835Z,8.45
2018-03-06T02:02:33.082Z,10.73
2018-03-06T02:05:00.559Z,12.65
2018-03-06T02:07:29.022Z,9.57
2018-03-06T02:09:56.570Z,9.23
2018-03-06T02:12:24.048Z,7.03
2018-03-06T02:14:52.539Z,8.05
2018-03-06T02:17:20.011Z,9.23
2018-03-06T02:19:47.533Z,11.20
2018-03-06T02:22:15.014Z,11.35
2018-03-06T02:24:43.242Z,9.13
2018-03-06T02:27:10.712Z,11.80
2018-03-06T02:29:38.206Z,14.32
2018-03-06T02:32:05.708Z,8.18
2018-03-06T02:34:33.174Z,7.57
2018-03-06T02:37:00.742Z,6.55
2018-03-06T02:39:28.298Z,7.32
2018-03-06T02:41:55.863Z,13.75
2018-03-06T02:44:24.122Z,8.55
2018-03-06T02:46:51.591Z,6.70
2018-03-06T02:49:19.059Z,5.40
2018-03-06T02:51:47.311Z,6.20
2018-03-06T02:54:14.874Z,6.07
2018-03-06T02:56:42.342Z,7.45
2018-03-06T02:59:10.597Z,7.87
2018-03-06T03:01:38.057Z,6.65
2018-03-06T03:04:05.533Z,5.37
2018-03-06T03:06:33.781Z,9.77
2018-03-06T03:09:01.250Z,9.20
2018-03-06T03:11:28.811Z,6.93
2018-03-06T03:13:57.057Z,13.25
2018-03-06T03:16:24.538Z,13.27
2018-03-06T03:18:52.101Z,8.27
2018-03-06T03:21:20.378Z,9.43
2018-03-06T03:23:48.638Z,9.15
2018-03-06T03:26:16.208Z,12.37
2018-03-06T03:28:43.770Z,9.25
2018-03-06T03:31:12.038Z,10.25
2018-03-06T03:33:39.606Z,10.00
2018-03-06T03:36:07.853Z,6.75
2018-03-06T03:38:35.347Z,9.57
2018-03-06T03:41:03.598Z,8.88
2018-03-06T03:43:33.060Z,15.43
2018-03-06T03:46:00.542Z,8.30
2018-03-06T03:48:28.011Z,10.30
2018-03-06T03:50:56.285Z,9.50
2018-03-06T03:53:24.223Z,10.27
2018-03-06T03:55:51.715Z,8.93
2018-03-06T03:58:19.966Z,12.07
2018-03-06T04:00:47.433Z,12.50
2018-03-06T04:03:14.998Z,6.40
2018-03-06T04:05:42.546Z,9.35
2018-03-06T04:08:10.830Z,7.65
2018-03-06T04:10:38.289Z,9.85
2018-03-06T04:13:05.782Z,6.82
2018-03-06T04:15:33.259Z,8.85
2018-03-06T04:18:01.494Z,10.27
2018-03-06T04:20:29.749Z,11.20
2018-03-06T04:22:57.214Z,14.55
2018-03-06T04:25:25.486Z,10.45
2018-03-06T04:27:53.746Z,13.02
2018-03-06T04:30:21.204Z,9.32
2018-03-06T04:32:48.698Z,7.47
2018-03-06T04:35:16.168Z,8.40
2018-03-06T04:37:43.763Z,9.32
2018-03-06T04:40:11.231Z,10.50
2018-03-06T04:42:38.863Z,14.35
2018-03-06T04:45:06.346Z,8.05
2018-03-06T04:47:33.907Z,10.90
2018-03-06T04:50:01.456Z,6.93
2018-03-06T04:52:28.921Z,12.32
2018-03-06T04:54:56.385Z,10.45
2018-03-06T04:57:24.625Z,10.30
2018-03-06T04:59:52.859Z,9.82
2018-03-06T05:02:20.904Z,6.78
2018-03-06T05:04:49.132Z,10.20
2018-03-06T05:07:17.114Z,11.95
2018-03-06T05:09:45.499Z,7.68
2018-03-06T05:12:14.106Z,9.63
2018-03-06T05:14:42.226Z,8.20
2018-03-06T05:17:09.684Z,10.75
2018-03-06T05:19:37.228Z,6.80
2018-03-06T05:22:06.172Z,12.93
2018-03-06T05:24:33.893Z,9.93
2018-03-06T05:27:01.930Z,7.70
2018-03-06T05:29:30.380Z,6.82
2018-03-06T05:31:57.846Z,12.57
2018-03-06T05:34:25.412Z,7.62
2018-03-06T05:36:53.677Z,11.30
2018-03-06T05:39:21.221Z,7.97
2018-03-06T05:41:48.696Z,11.20
2018-03-06T05:44:16.231Z,7.18
2018-03-06T05:46:43.796Z,13.23
2018-03-06T05:49:11.353Z,4.72
2018-03-06T05:51:38.820Z,9.02
2018-03-06T05:54:07.086Z,10.35
2018-03-06T05:56:34.545Z,9.93
2018-03-06T05:59:02.029Z,15.07
2018-03-06T06:01:29.481Z,9.45
2018-03-06T06:03:57.708Z,10.75
2018-03-06T06:06:25.197Z,11.40
2018-03-06T06:08:53.425Z,7.78
2018-03-06T06:11:20.911Z,8.90
2018-03-06T06:13:48.408Z,11.40
2018-03-06T06:16:16.040Z,11.70
2018-03-06T06:18:43.494Z,7.43
2018-03-06T06:21:11.807Z,10.07
2018-03-06T06:23:39.279Z,13.32
2018-03-06T06:26:06.742Z,11.02
2018-03-06T06:28:34.220Z,10.32
2018-03-06T06:31:02.442Z,7.47
2018-03-06T06:33:29.895Z,10.15
2018-03-06T06:35:57.404Z,17.60
2018-03-06T06:38:24.893Z,13.13
2018-03-06T06:40:53.111Z,9.98
2018-03-06T06:43:20.698Z,11.90
2018-03-06T06:45:48.169Z,12.13
2018-03-06T06:48:16.398Z,17.77
2018-03-06T06:50:43.866Z,10.82
2018-03-06T06:53:11.330Z,14.13
2018-03-06T06:55:38.788Z,13.23
2018-03-06T06:58:06.256Z,11.18
2018-03-06T07:00:33.808Z,9.77
2018-03-06T07:03:01.272Z,15.93
2018-03-06T07:05:29.524Z,10.10
2018-03-06T07:07:56.977Z,12.13
2018-03-06T07:10:24.556Z,10.80
2018-03-06T07:12:52.018Z,9.70
2018-03-06T07:15:19.574Z,11.32
2018-03-06T07:17:47.049Z,11.65
2018-03-06T07:20:15.281Z,11.18
2018-03-06T07:22:42.793Z,13.85
2018-03-06T07:25:10.246Z,13.97
2018-03-06T07:27:37.728Z,10.35
2018-03-06T07:30:05.187Z,13.33
2018-03-06T07:32:32.645Z,15.25
2018-03-06T07:35:00.141Z,15.43
2018-03-06T07:37:27.690Z,15.82
2018-03-06T07:39:55.148Z,14.07
2018-03-06T07:42:22.709Z,24.77
2018-03-06T07:44:50.164Z,16.27
2018-03-06T07:47:17.620Z,17.63
2018-03-06T07:49:45.101Z,14.27
2018-03-06T07:52:12.568Z,16.13
2018-03-06T07:54:40.802Z,15.07
2018-03-06T07:57:08.266Z,13.97
2018-03-06T07:59:35.735Z,13.30
2018-03-06T08:02:03.177Z,20.67
2018-03-06T08:04:30.646Z,17.97
2018-03-06T08:06:58.913Z,23.20
2018-03-06T08:09:26.370Z,14.70
2018-03-06T08:11:53.849Z,13.73
2018-03-06T08:14:21.361Z,14.77
2018-03-06T08:16:48.939Z,16.43
2018-03-06T08:19:16.481Z,16.10
2018-03-06T08:21:44.050Z,14.47
2018-03-06T08:24:11.504Z,18.20
2018-03-06T08:26:39.048Z,20.83
2018-03-06T08:29:06.604Z,15.13
2018-03-06T08:31:34.087Z,14.83
2018-03-06T08:34:01.745Z,14.57
2018-03-06T08:36:29.209Z,13.80
2018-03-06T08:38:57.433Z,15.10
2018-03-06T08:41:25.014Z,23.17
2018-03-06T08:43:53.594Z,21.00
2018-03-06T08:46:21.051Z,20.93
2018-03-06T08:48:48.527Z,18.30
2018-03-06T08:51:16.066Z,13.40
2018-03-06T08:53:43.521Z,16.70
2018-03-06T08:56:10.999Z,17.10
2018-03-06T08:58:38.441Z,16.87
2018-03-06T09:01:05.892Z,10.13
2018-03-06T09:03:33.451Z,13.80
2018-03-06T09:08:37.576Z,8.73
2018-03-06T09:11:05.134Z,9.20
2018-03-06T09:13:32.689Z,12.90
2018-03-06T09:16:00.960Z,13.83
2018-03-06T09:18:28.410Z,8.33
2018-03-06T09:20:55.866Z,14.13
2018-03-06T09:23:23.330Z,12.80
2018-03-06T09:25:50.781Z,10.13
2018-03-06T09:28:18.240Z,19.40
2018-03-06T09:30:45.716Z,12.97
2018-03-06T09:33:13.261Z,11.13
2018-03-06T09:35:40.811Z,12.13
2018-03-06T09:38:08.373Z,9.63
2018-03-06T09:40:35.833Z,14.37
2018-03-06T09:43:03.651Z,10.70
2018-03-06T09:45:31.126Z,9.77
2018-03-06T09:47:58.632Z,8.57
2018-03-06T09:50:26.862Z,11.40
2018-03-06T09:52:54.328Z,12.17
2018-03-06T09:55:21.888Z,11.83
2018-03-06T09:57:49.349Z,9.57
2018-03-06T10:00:16.815Z,7.43
2018-03-06T10:02:44.367Z,13.57
2018-03-06T10:05:11.830Z,9.17
2018-03-06T10:07:39.295Z,9.67
2018-03-06T10:10:07.523Z,12.90
2018-03-06T10:12:34.989Z,13.73
2018-03-06T10:15:02.482Z,9.20
2018-03-06T10:17:30.706Z,13.23
2018-03-06T10:19:58.178Z,11.07
2018-03-06T10:22:25.655Z,8.90
2018-03-06T10:24:53.108Z,13.23
2018-03-06T10:27:21.332Z,6.53
2018-03-06T10:29:48.841Z,10.73
2018-03-06T10:32:16.294Z,7.20
2018-03-06T10:34:43.786Z,9.70
2018-03-06T10:37:12.024Z,10.50
2018-03-06T10:39:39.483Z,11.37
2018-03-06T10:42:06.944Z,7.23
2018-03-06T10:44:35.185Z,9.70
2018-03-06T10:47:02.686Z,7.90
2018-03-06T10:49:30.093Z,13.17
2018-03-06T10:51:57.577Z,12.23
2018-03-06T10:54:25.037Z,6.53
2018-03-06T10:56:52.589Z,8.47
2018-03-06T10:59:20.057Z,9.73
2018-03-06T11:01:47.539Z,7.80
2018-03-06T11:04:14.993Z,7.17
2018-03-06T11:06:43.334Z,9.80
2018-03-06T11:09:10.793Z,6.10
2018-03-06T11:11:38.254Z,6.90
2018-03-06T11:14:05.717Z,5.53
2018-03-06T11:16:33.169Z,7.80
2018-03-06T11:19:00.628Z,5.60
2018-03-06T11:21:28.166Z,5.80
2018-03-06T11:23:55.628Z,5.10
2018-03-06T11:26:23.083Z,6.27
2018-03-06T11:28:50.553Z,9.70
2018-03-06T11:31:18.013Z,4.40
2018-03-06T11:33:46.257Z,9.53
2018-03-06T11:36:13.721Z,7.83
2018-03-06T11:38:41.276Z,6.80
2018-03-06T11:41:09.889Z,5.83
2018-03-06T11:43:38.113Z,4.67
2018-03-06T11:46:05.588Z,8.60
2018-03-06T11:48:33.090Z,5.80
2018-03-06T11:51:00.581Z,6.47
2018-03-06T11:53:28.053Z,12.40
2018-03-06T11:55:55.621Z,5.80
2018-03-06T11:58:23.260Z,3.37
2018-03-06T12:00:50.716Z,5.33
2018-03-06T12:03:18.188Z,7.20
2018-03-06T12:05:45.668Z,6.17
2018-03-06T12:08:13.119Z,7.43
2018-03-06T12:10:40.668Z,7.80
2018-03-06T12:13:08.135Z,7.17
2018-03-06T12:15:36.404Z,9.63
2018-03-06T12:18:04.660Z,7.30
2018-03-06T12:20:32.135Z,8.30
2018-03-06T12:23:00.352Z,6.00
2018-03-06T12:25:27.865Z,4.00
2018-03-06T12:27:56.129Z,5.23
2018-03-06T12:30:23.581Z,6.00
2018-03-06T12:32:51.037Z,4.97
2018-03-06T12:35:18.502Z,7.23
2018-03-06T12:37:46.136Z,6.13
2018-03-06T12:40:13.604Z,8.93
2018-03-06T12:42:41.130Z,4.80
2018-03-06T12:45:08.626Z,5.83
2018-03-06T12:47:36.182Z,6.60
2018-03-06T12:50:03.685Z,4.10
2018-03-06T12:52:31.236Z,8.50
2018-03-06T12:54:58.763Z,11.70
2018-03-06T12:57:26.224Z,9.60
2018-03-06T12:59:54.513Z,5.33
2018-03-06T13:02:22.738Z,3.77
2018-03-06T13:04:50.232Z,7.60
2018-03-06T13:07:18.452Z,6.20
2018-03-06T13:09:45.905Z,7.90
2018-03-06T13:12:13.403Z,6.37
2018-03-06T13:14:40.953Z,10.83
2018-03-06T13:17:08.418Z,11.90
2018-03-06T13:19:35.881Z,5.03
2018-03-06T13:22:04.142Z,5.40
2018-03-06T13:24:31.596Z,7.47
2018-03-06T13:26:59.073Z,7.30
2018-03-06T13:29:27.293Z,5.17
2018-03-06T13:31:54.789Z,11.10
2018-03-06T13:34:22.250Z,7.67
2018-03-06T13:36:50.578Z,7.90
2018-03-06T13:39:18.043Z,7.33
2018-03-06T13:41:45.521Z,5.67
2018-03-06T13:44:12.977Z,6.27
2018-03-06T13:46:40.438Z,6.03
2018-03-06T13:49:07.997Z,4.10
2018-03-06T13:51:35.458Z,4.87
2018-03-06T13:54:02.913Z,4.97
2018-03-06T13:56:30.385Z,5.33
2018-03-06T13:58:58.737Z,5.00
2018-03-06T14:01:26.302Z,3.13
2018-03-06T14:03:53.855Z,5.53
2018-03-06T14:06:21.419Z,2.97
2018-03-06T14:08:48.882Z,2.67
2018-03-06T14:11:17.109Z,3.03
2018-03-06T14:13:44.566Z,4.37
2018-03-06T14:16:12.068Z,4.73
2018-03-06T14:18:39.614Z,3.53
2018-03-06T14:21:07.829Z,2.90
2018-03-06T14:23:35.276Z,2.90
2018-03-06T14:26:03.890Z,5.47
2018-03-06T14:28:31.387Z,3.70
2018-03-06T14:30:58.942Z,4.50
2018-03-06T14:33:27.217Z,3.17
2018-03-06T14:35:54.668Z,4.27
2018-03-06T14:38:22.889Z,3.17
2018-03-06T14:40:50.348Z,1.67
2018-03-06T14:43:17.806Z,2.37
2018-03-06T14:45:45.254Z,3.23
2018-03-06T14:48:12.781Z,2.73
2018-03-06T14:50:40.324Z,2.20
2018-03-06T14:53:08.538Z,4.90
2018-03-06T14:55:36.059Z,6.60
2018-03-06T14:58:03.613Z,4.30
2018-03-06T15:00:31.832Z,2.97
2018-03-06T15:02:59.344Z,4.90
2018-03-06T15:05:27.566Z,2.60
2018-03-06T15:07:55.316Z,1.80
2018-03-06T15:10:23.653Z,3.13
2018-03-06T15:12:51.209Z,3.27
2018-03-06T15:15:18.774Z,2.67
2018-03-06T15:17:46.329Z,5.17
2018-03-06T15:20:14.554Z,3.53
2018-03-06T15:22:42.001Z,3.10
2018-03-06T15:25:09.509Z,5.03
2018-03-06T15:27:37.072Z,1.97
2018-03-06T15:30:04.632Z,3.40
2018-03-06T15:32:32.094Z,3.30
2018-03-06T15:34:59.647Z,2.73
2018-03-06T15:37:27.117Z,1.63
2018-03-06T15:39:55.377Z,2.30
2018-03-06T15:42:22.840Z,3.00
2018-03-06T15:44:50.308Z,1.70
2018-03-06T15:47:17.845Z,1.23
2018-03-06T15:49:45.325Z,1.43
2018-03-06T15:52:13.567Z,1.27
2018-03-06T15:54:41.037Z,1.53
2018-03-06T15:57:08.598Z,1.30
2018-03-06T15:59:36.145Z,2.17
2018-03-06T16:02:03.810Z,1.10
2018-03-06T16:04:31.367Z,2.20
2018-03-06T16:06:58.890Z,2.00
2018-03-06T16:09:31.570Z,1.60
2018-03-06T16:11:59.026Z,1.10
2018-03-06T16:14:26.485Z,0.60
2018-03-06T16:16:53.955Z,0.70
2018-03-06T16:19:21.404Z,0.77
2018-03-06T16:21:48.877Z,0.70
2018-03-06T16:24:16.367Z,2.50
2018-03-06T16:26:44.582Z,0.90
2018-03-06T16:29:12.063Z,1.50
2018-03-06T16:31:39.541Z,1.07
2018-03-06T16:34:06.989Z,2.10
2018-03-06T16:36:34.538Z,2.83
2018-03-06T16:39:02.120Z,1.63
2018-03-06T16:41:30.343Z,1.37
2018-03-06T16:43:57.801Z,2.13
2018-03-06T16:46:25.297Z,1.70
2018-03-06T16:48:52.825Z,1.40
2018-03-06T16:51:20.990Z,4.50
2018-03-06T16:53:50.636Z,2.30
2018-03-06T16:56:18.181Z,1.10
2018-03-06T16:58:45.721Z,1.37
2018-03-06T17:01:13.233Z,4.37
2018-03-06T17:03:40.686Z,2.13
2018-03-06T17:06:09.085Z,3.90
2018-03-06T17:08:36.556Z,2.60
2018-03-06T17:11:04.089Z,2.70
2018-03-06T17:13:31.537Z,4.13
2018-03-06T17:15:59.781Z,1.63
2018-03-06T17:18:27.341Z,2.00
2018-03-06T17:20:54.805Z,3.87
2018-03-06T17:23:23.090Z,2.10
2018-03-06T17:25:51.574Z,3.60
2018-03-06T17:28:19.041Z,3.07
2018-03-06T17:30:46.565Z,3.30
2018-03-06T17:33:14.139Z,1.83
2018-03-06T17:35:41.729Z,5.30
2018-03-06T17:38:09.239Z,4.47
2018-03-06T17:40:36.861Z,2.60
2018-03-06T17:43:04.663Z,1.43
2018-03-06T17:45:33.030Z,1.47
2018-03-06T17:48:01.391Z,1.20
2018-03-06T17:50:29.089Z,4.10
2018-03-06T17:52:58.343Z,2.70
2018-03-06T17:55:26.203Z,2.93
2018-03-06T17:57:54.022Z,3.50
2018-03-06T18:00:21.748Z,4.20
2018-03-06T18:02:49.448Z,5.30
2018-03-06T18:05:17.172Z,4.60
2018-03-06T18:07:44.811Z,4.20
2018-03-06T18:10:13.773Z,3.33
2018-03-06T18:12:42.025Z,6.10
2018-03-06T18:15:09.481Z,3.80
2018-03-06T18:17:37.200Z,3.80
2018-03-06T18:20:04.725Z,2.90
2018-03-06T18:22:32.229Z,2.77
2018-03-06T18:24:59.685Z,12.33
2018-03-06T18:27:27.177Z,3.17
2018-03-06T18:29:55.397Z,5.20
2018-03-06T18:32:22.846Z,9.73
2018-03-06T18:34:50.321Z,4.03
2018-03-06T18:37:17.800Z,7.77
2018-03-06T18:39:45.258Z,5.40
2018-03-06T18:42:12.751Z,3.50
2018-03-06T18:44:40.206Z,6.03
2018-03-06T18:47:07.790Z,3.63
2018-03-06T18:49:35.287Z,3.20
2018-03-06T18:52:02.779Z,4.80
2018-03-06T18:54:30.248Z,5.20
2018-03-06T18:56:57.914Z,3.97
2018-03-06T18:59:25.391Z,3.70
2018-03-06T19:05:03.470Z,5.10
2018-03-06T19:07:30.992Z,6.17
2018-03-06T19:09:58.552Z,4.07
2018-03-06T19:12:26.375Z,5.83
2018-03-06T19:14:53.830Z,6.10
2018-03-06T19:17:21.630Z,4.83
2018-03-06T19:19:49.106Z,6.17
2018-03-06T19:22:16.605Z,3.57
2018-03-06T19:24:44.160Z,5.23
2018-03-06T19:27:11.629Z,4.67
2018-03-06T19:29:39.089Z,3.60
2018-03-06T19:32:06.669Z,8.47
2018-03-06T19:34:34.899Z,3.90
2018-03-06T19:37:02.421Z,3.37
2018-03-06T19:39:30.646Z,5.10
2018-03-06T19:41:58.172Z,4.10
2018-03-06T19:44:25.733Z,4.53
2018-03-06T19:46:53.106Z,3.80
2018-03-06T19:49:20.597Z,3.37
2018-03-06T19:51:48.066Z,5.80
2018-03-06T19:54:15.542Z,3.73
2018-03-06T19:56:43.790Z,3.60
2018-03-06T19:59:11.343Z,4.00
2018-03-06T20:01:38.807Z,6.47
2018-03-06T20:04:06.284Z,6.80
2018-03-06T20:06:34.525Z,4.97
2018-03-06T20:09:02.771Z,3.50
2018-03-06T20:11:30.559Z,4.63
2018-03-06T20:13:58.645Z,3.30
2018-03-06T20:16:26.232Z,7.47
2018-03-06T20:19:00.269Z,5.57
2018-03-06T20:21:27.727Z,3.90
2018-03-06T20:23:55.194Z,5.23
2018-03-06T20:26:22.875Z,4.10
2018-03-06T20:28:50.474Z,5.20
2018-03-06T20:31:23.759Z,5.13
2018-03-06T20:33:52.015Z,4.77
2018-03-06T20:36:19.574Z,4.63
2018-03-06T20:38:52.904Z,4.30
2018-03-06T20:41:20.482Z,4.83
2018-03-06T20:43:48.286Z,3.53
2018-03-06T20:49:20.400Z,2.80
2018-03-06T20:51:48.000Z,4.07
2018-03-06T20:54:21.221Z,4.23
2018-03-06T20:56:48.776Z,4.40
2018-03-06T20:59:16.230Z,5.80
2018-03-06T21:01:43.705Z,4.07
2018-03-06T21:04:11.929Z,9.30
2018-03-06T21:06:39.400Z,3.33
2018-03-06T21:09:07.149Z,3.20
2018-03-06T21:11:34.682Z,4.20
2018-03-06T21:14:02.208Z,3.50
2018-03-06T21:16:30.219Z,4.50
2018-03-06T21:18:57.751Z,5.40
2018-03-06T21:21:25.209Z,2.77
2018-03-06T21:23:52.681Z,4.27
2018-03-06T21:26:20.129Z,2.53
2018-03-06T21:28:47.586Z,3.40
2018-03-06T21:31:15.061Z,3.90
2018-03-06T21:33:42.533Z,4.13
2018-03-06T21:36:10.749Z,3.60
2018-03-06T21:38:38.998Z,4.73
2018-03-06T21:41:06.454Z,4.07
2018-03-06T21:43:33.934Z,4.20
2018-03-06T21:46:02.156Z,4.27
2018-03-06T21:48:29.600Z,2.30
2018-03-06T21:50:57.177Z,3.27
2018-03-06T21:53:24.625Z,2.27
2018-03-06T21:55:52.118Z,2.97
2018-03-06T21:58:21.519Z,4.03
2018-03-06T22:00:48.985Z,4.20
2018-03-06T22:03:17.203Z,2.10
2018-03-06T22:05:44.673Z,2.43
2018-03-06T22:08:12.132Z,2.60
2018-03-06T22:10:40.736Z,2.97
2018-03-06T22:13:08.289Z,5.00
2018-03-06T22:15:35.778Z,3.80
2018-03-06T22:18:04.008Z,1.87
2018-03-06T22:20:31.461Z,1.70
2018-03-06T22:22:58.986Z,11.03
2018-03-06T22:25:26.434Z,2.90
2018-03-06T22:27:53.893Z,3.33
2018-03-06T22:30:21.352Z,3.30
2018-03-06T22:32:48.842Z,3.30
2018-03-06T22:35:16.306Z,2.50
2018-03-06T22:37:43.777Z,2.30
2018-03-06T22:40:11.265Z,1.93
2018-03-06T22:42:38.728Z,1.80
2018-03-06T22:45:06.184Z,1.50
2018-03-06T22:47:33.660Z,3.37
2018-03-06T22:50:01.140Z,1.87
2018-03-06T22:52:28.616Z,1.50
2018-03-06T22:54:56.094Z,2.10
2018-03-06T22:57:24.342Z,2.23
2018-03-06T22:59:51.801Z,1.43
2018-03-06T23:02:19.274Z,1.60
2018-03-06T23:04:47.514Z,1.17
2018-03-06T23:07:14.974Z,1.40
2018-03-06T23:09:43.217Z,1.30
2018-03-06T23:12:10.695Z,1.13
2018-03-06T23:14:38.149Z,1.57
2018-03-06T23:17:05.628Z,2.83
2018-03-06T23:19:33.127Z,1.00
2018-03-06T23:22:00.573Z,1.07
2018-03-06T23:24:28.053Z,1.27
2018-03-06T23:26:55.538Z,1.40
2018-03-06T23:29:23.017Z,1.40
2018-03-06T23:32:08.126Z,1.87
2018-03-06T23:34:38.571Z,1.87
2018-03-06T23:37:08.873Z,1.30
2018-03-06T23:39:38.728Z,1.43
2018-03-06T23:42:06.265Z,2.13
2018-03-06T23:44:33.743Z,1.27
2018-03-06T23:47:01.208Z,1.60
2018-03-06T23:49:28.670Z,1.80
2018-03-06T23:51:56.167Z,1.70
2018-03-06T23:54:23.625Z,1.80
2018-03-06T23:56:51.096Z,1.40
2018-03-06T23:59:18.596Z,1.77
